sensor_id;sensor_type;location;lat;lon;timestamp;pressure;altitude;pressure_sealevel;temperature;humidity
61963;BME280;47927;42.646;23.096;2022-10-16T00:01:21;92734.72;;;7.43;62.53
61963;BME280;47927;42.646;23.096;2022-10-16T00:03:48;92730.53;;;7.50;61.43
61963;BME280;47927;42.646;23.096;2022-10-16T00:06:15;92732.13;;;7.55;61.34
61963;BME280;47927;42.646;23.096;2022-10-16T00:08:43;92738.50;;;7.33;62.38
61963;BME280;47927;42.646;23.096;2022-10-16T00:11:21;92735.81;;;7.29;62.43
61963;BME280;47927;42.646;23.096;2022-10-16T00:13:48;92738.50;;;7.21;63.02
61963;BME280;47927;42.646;23.096;2022-10-16T00:16:15;92724.91;;;7.12;63.63
61963;BME280;47927;42.646;23.096;2022-10-16T00:18:41;92728.78;;;6.93;64.71
61963;BME280;47927;42.646;23.096;2022-10-16T00:21:22;92741.09;;;7.21;64.23
61963;BME280;47927;42.646;23.096;2022-10-16T00:23:57;92736.34;;;7.47;63.25
61963;BME280;47927;42.646;23.096;2022-10-16T00:26:25;92738.19;;;7.59;62.26
61963;BME280;47927;42.646;23.096;2022-10-16T00:28:51;92733.88;;;7.51;62.24
61963;BME280;47927;42.646;23.096;2022-10-16T00:31:19;92741.63;;;7.63;61.82
61963;BME280;47927;42.646;23.096;2022-10-16T00:33:45;92735.91;;;7.45;62.22
61963;BME280;47927;42.646;23.096;2022-10-16T00:36:13;92745.84;;;7.43;62.92
61963;BME280;47927;42.646;23.096;2022-10-16T00:38:40;92745.63;;;7.48;62.91
61963;BME280;47927;42.646;23.096;2022-10-16T00:41:07;92748.31;;;7.64;62.60
61963;BME280;47927;42.646;23.096;2022-10-16T00:46:26;92735.69;;;7.63;62.47
61963;BME280;47927;42.646;23.096;2022-10-16T00:51:36;92736.44;;;7.63;62.47
61963;BME280;47927;42.646;23.096;2022-10-16T00:54:09;92747.03;;;7.70;62.04
61963;BME280;47927;42.646;23.096;2022-10-16T00:56:35;92744.88;;;7.48;62.59
61963;BME280;47927;42.646;23.096;2022-10-16T00:59:04;92743.16;;;7.40;62.79
61963;BME280;47927;42.646;23.096;2022-10-16T01:01:31;92743.38;;;7.35;62.88
61963;BME280;47927;42.646;23.096;2022-10-16T01:03:57;92746.06;;;7.14;63.44
61963;BME280;47927;42.646;23.096;2022-10-16T01:11:44;92748.09;;;6.96;64.78
61963;BME280;47927;42.646;23.096;2022-10-16T01:14:32;92747.78;;;7.10;64.25
61963;BME280;47927;42.646;23.096;2022-10-16T01:17:43;92751.78;;;7.19;63.85
61963;BME280;47927;42.646;23.096;2022-10-16T01:28:13;92743.16;;;7.40;60.77
61963;BME280;47927;42.646;23.096;2022-10-16T01:30:42;92737.56;;;7.38;60.36
61963;BME280;47927;42.646;23.096;2022-10-16T01:33:15;92731.25;;;7.02;61.81
61963;BME280;47927;42.646;23.096;2022-10-16T01:35:46;92728.66;;;6.90;62.80
61963;BME280;47927;42.646;23.096;2022-10-16T01:38:21;92732.78;;;7.03;61.50
61963;BME280;47927;42.646;23.096;2022-10-16T01:41:00;92743.25;;;7.06;60.97
61963;BME280;47927;42.646;23.096;2022-10-16T01:43:36;92748.53;;;7.10;60.70
61963;BME280;47927;42.646;23.096;2022-10-16T01:46:05;92746.28;;;7.08;60.13
61963;BME280;47927;42.646;23.096;2022-10-16T01:48:32;92748.97;;;7.00;60.91
61963;BME280;47927;42.646;23.096;2022-10-16T01:51:25;92747.97;;;6.92;61.70
61963;BME280;47927;42.646;23.096;2022-10-16T01:53:55;92750.44;;;6.76;62.05
61963;BME280;47927;42.646;23.096;2022-10-16T01:56:21;92752.06;;;6.48;63.06
61963;BME280;47927;42.646;23.096;2022-10-16T01:58:53;92742.03;;;6.46;63.15
61963;BME280;47927;42.646;23.096;2022-10-16T02:01:22;92757.41;;;6.64;62.20
61963;BME280;47927;42.646;23.096;2022-10-16T02:03:51;92758.94;;;6.65;61.82
61963;BME280;47927;42.646;23.096;2022-10-16T02:06:19;92762.19;;;6.74;60.42
61963;BME280;47927;42.646;23.096;2022-10-16T02:08:46;92763.38;;;6.76;60.35
61963;BME280;47927;42.646;23.096;2022-10-16T02:11:11;92765.94;;;6.64;61.32
61963;BME280;47927;42.646;23.096;2022-10-16T02:13:43;92771.34;;;6.71;62.22
61963;BME280;47927;42.646;23.096;2022-10-16T02:16:11;92774.19;;;6.78;61.20
61963;BME280;47927;42.646;23.096;2022-10-16T02:18:38;92762.75;;;6.46;62.40
61963;BME280;47927;42.646;23.096;2022-10-16T02:21:40;92781.03;;;6.62;61.00
61963;BME280;47927;42.646;23.096;2022-10-16T02:24:18;92784.81;;;6.65;60.91
61963;BME280;47927;42.646;23.096;2022-10-16T02:26:54;92779.81;;;6.59;61.34
61963;BME280;47927;42.646;23.096;2022-10-16T02:29:26;92776.94;;;6.61;60.38
61963;BME280;47927;42.646;23.096;2022-10-16T02:31:59;92779.94;;;6.63;60.08
61963;BME280;47927;42.646;23.096;2022-10-16T02:34:27;92778.63;;;6.57;60.36
61963;BME280;47927;42.646;23.096;2022-10-16T02:36:55;92787.94;;;6.58;59.74
61963;BME280;47927;42.646;23.096;2022-10-16T02:39:21;92784.38;;;6.62;60.33
61963;BME280;47927;42.646;23.096;2022-10-16T02:41:47;92792.53;;;6.52;60.49
61963;BME280;47927;42.646;23.096;2022-10-16T02:44:13;92793.06;;;6.46;61.22
61963;BME280;47927;42.646;23.096;2022-10-16T02:46:38;92789.66;;;6.33;61.91
61963;BME280;47927;42.646;23.096;2022-10-16T02:49:04;92795.56;;;6.33;62.02
61963;BME280;47927;42.646;23.096;2022-10-16T02:51:30;92799.06;;;6.37;60.85
61963;BME280;47927;42.646;23.096;2022-10-16T02:53:55;92793.69;;;6.43;60.72
61963;BME280;47927;42.646;23.096;2022-10-16T02:56:21;92800.81;;;6.46;61.03
61963;BME280;47927;42.646;23.096;2022-10-16T02:58:46;92790.25;;;6.51;61.06
61963;BME280;47927;42.646;23.096;2022-10-16T03:01:12;92798.66;;;6.27;62.08
61963;BME280;47927;42.646;23.096;2022-10-16T03:03:39;92789.88;;;5.77;63.84
61963;BME280;47927;42.646;23.096;2022-10-16T03:06:05;92782.22;;;5.81;63.84
61963;BME280;47927;42.646;23.096;2022-10-16T03:08:31;92784.59;;;5.65;65.05
61963;BME280;47927;42.646;23.096;2022-10-16T03:10:56;92780.19;;;5.65;65.77
61963;BME280;47927;42.646;23.096;2022-10-16T03:13:22;92787.91;;;5.44;66.55
61963;BME280;47927;42.646;23.096;2022-10-16T03:15:48;92782.81;;;5.86;65.57
61963;BME280;47927;42.646;23.096;2022-10-16T03:18:14;92791.44;;;5.90;64.88
61963;BME280;47927;42.646;23.096;2022-10-16T03:20:39;92775.38;;;6.06;64.32
61963;BME280;47927;42.646;23.096;2022-10-16T03:23:05;92784.69;;;6.28;63.21
61963;BME280;47927;42.646;23.096;2022-10-16T03:25:32;92787.31;;;6.40;63.25
61963;BME280;47927;42.646;23.096;2022-10-16T03:27:57;92794.63;;;6.17;64.07
61963;BME280;47927;42.646;23.096;2022-10-16T03:30:23;92796.41;;;6.04;64.49
61963;BME280;47927;42.646;23.096;2022-10-16T03:32:48;92799.25;;;5.82;65.53
61963;BME280;47927;42.646;23.096;2022-10-16T03:35:19;92792.28;;;5.74;66.14
61963;BME280;47927;42.646;23.096;2022-10-16T03:37:45;92798.09;;;6.00;65.86
61963;BME280;47927;42.646;23.096;2022-10-16T03:40:11;92794.59;;;6.26;64.80
61963;BME280;47927;42.646;23.096;2022-10-16T03:42:36;92791.75;;;6.39;64.23
61963;BME280;47927;42.646;23.096;2022-10-16T03:45:02;92786.09;;;6.58;63.63
61963;BME280;47927;42.646;23.096;2022-10-16T03:47:28;92783.69;;;6.53;63.18
61963;BME280;47927;42.646;23.096;2022-10-16T03:49:53;92782.53;;;6.63;62.98
61963;BME280;47927;42.646;23.096;2022-10-16T03:52:19;92780.78;;;6.55;62.97
61963;BME280;47927;42.646;23.096;2022-10-16T03:54:44;92790.31;;;6.63;62.37
61963;BME280;47927;42.646;23.096;2022-10-16T03:57:10;92789.53;;;6.62;62.66
61963;BME280;47927;42.646;23.096;2022-10-16T03:59:35;92790.25;;;6.51;63.15
61963;BME280;47927;42.646;23.096;2022-10-16T04:02:01;92793.28;;;6.53;63.17
61963;BME280;47927;42.646;23.096;2022-10-16T04:04:27;92791.94;;;6.34;64.51
61963;BME280;47927;42.646;23.096;2022-10-16T04:06:52;92792.13;;;6.62;63.88
61963;BME280;47927;42.646;23.096;2022-10-16T04:09:18;92779.44;;;6.70;63.27
61963;BME280;47927;42.646;23.096;2022-10-16T04:11:43;92788.00;;;6.82;62.88
61963;BME280;47927;42.646;23.096;2022-10-16T04:14:09;92787.81;;;6.88;61.88
61963;BME280;47927;42.646;23.096;2022-10-16T04:16:34;92780.31;;;6.74;61.95
61963;BME280;47927;42.646;23.096;2022-10-16T04:19:00;92783.13;;;6.81;61.59
61963;BME280;47927;42.646;23.096;2022-10-16T04:21:25;92793.03;;;6.67;61.22
61963;BME280;47927;42.646;23.096;2022-10-16T04:23:51;92793.59;;;6.72;60.85
61963;BME280;47927;42.646;23.096;2022-10-16T04:26:17;92776.50;;;6.59;58.88
61963;BME280;47927;42.646;23.096;2022-10-16T04:28:43;92791.09;;;6.43;59.88
61963;BME280;47927;42.646;23.096;2022-10-16T04:31:08;92787.31;;;6.40;60.39
61963;BME280;47927;42.646;23.096;2022-10-16T04:33:34;92788.03;;;6.28;61.67
61963;BME280;47927;42.646;23.096;2022-10-16T04:36:00;92792.03;;;6.38;62.19
61963;BME280;47927;42.646;23.096;2022-10-16T04:38:26;92793.06;;;6.46;61.84
61963;BME280;47927;42.646;23.096;2022-10-16T04:40:52;92793.94;;;6.50;61.59
61963;BME280;47927;42.646;23.096;2022-10-16T04:43:18;92791.53;;;6.24;62.24
61963;BME280;47927;42.646;23.096;2022-10-16T04:45:44;92797.84;;;6.14;62.60
61963;BME280;47927;42.646;23.096;2022-10-16T04:48:09;92789.41;;;6.05;63.13
61963;BME280;47927;42.646;23.096;2022-10-16T04:50:35;92810.78;;;6.35;62.29
61963;BME280;47927;42.646;23.096;2022-10-16T04:53:05;92802.16;;;6.10;62.99
61963;BME280;47927;42.646;23.096;2022-10-16T04:55:30;92817.63;;;6.39;61.42
61963;BME280;47927;42.646;23.096;2022-10-16T04:57:56;92810.63;;;6.19;62.42
61963;BME280;47927;42.646;23.096;2022-10-16T05:00:21;92814.66;;;6.29;60.84
61963;BME280;47927;42.646;23.096;2022-10-16T05:02:49;92822.34;;;6.16;61.68
61963;BME280;47927;42.646;23.096;2022-10-16T05:05:14;92820.81;;;6.36;60.04
61963;BME280;47927;42.646;23.096;2022-10-16T05:07:40;92818.88;;;7.70;58.69
61963;BME280;47927;42.646;23.096;2022-10-16T05:10:06;92816.13;;;10.07;53.57
61963;BME280;47927;42.646;23.096;2022-10-16T05:12:32;92821.69;;;11.88;47.27
61963;BME280;47927;42.646;23.096;2022-10-16T05:14:59;92815.69;;;12.70;46.36
61963;BME280;47927;42.646;23.096;2022-10-16T05:17:25;92822.03;;;14.47;42.98
61963;BME280;47927;42.646;23.096;2022-10-16T05:19:51;92822.81;;;15.85;40.84
61963;BME280;47927;42.646;23.096;2022-10-16T05:22:17;92826.06;;;16.79;39.17
61963;BME280;47927;42.646;23.096;2022-10-16T05:24:43;92829.34;;;17.64;36.94
61963;BME280;47927;42.646;23.096;2022-10-16T05:27:08;92834.28;;;18.55;36.29
61963;BME280;47927;42.646;23.096;2022-10-16T05:29:34;92825.84;;;19.32;33.99
61963;BME280;47927;42.646;23.096;2022-10-16T05:32:00;92832.47;;;19.75;31.80
61963;BME280;47927;42.646;23.096;2022-10-16T05:34:26;92839.00;;;20.17;32.56
61963;BME280;47927;42.646;23.096;2022-10-16T05:36:51;92847.78;;;20.34;31.43
61963;BME280;47927;42.646;23.096;2022-10-16T05:39:17;92850.47;;;19.26;32.67
61963;BME280;47927;42.646;23.096;2022-10-16T05:41:43;92854.41;;;17.93;35.66
61963;BME280;47927;42.646;23.096;2022-10-16T05:44:09;92854.38;;;18.01;35.81
61963;BME280;47927;42.646;23.096;2022-10-16T05:46:34;92854.13;;;18.29;36.72
61963;BME280;47927;42.646;23.096;2022-10-16T05:49:00;92848.78;;;19.70;34.21
61963;BME280;47927;42.646;23.096;2022-10-16T05:51:25;92857.53;;;21.24;32.45
61963;BME280;47927;42.646;23.096;2022-10-16T05:53:52;92855.84;;;22.36;30.15
61963;BME280;47927;42.646;23.096;2022-10-16T05:56:18;92856.94;;;23.13;29.04
61963;BME280;47927;42.646;23.096;2022-10-16T05:58:43;92858.06;;;24.43;27.98
61963;BME280;47927;42.646;23.096;2022-10-16T06:01:14;92866.78;;;25.00;25.95
61963;BME280;47927;42.646;23.096;2022-10-16T06:03:40;92866.84;;;24.88;25.84
61963;BME280;47927;42.646;23.096;2022-10-16T06:06:11;92868.16;;;25.80;25.31
61963;BME280;47927;42.646;23.096;2022-10-16T06:08:38;92873.25;;;26.37;24.98
61963;BME280;47927;42.646;23.096;2022-10-16T06:11:06;92885.94;;;26.92;22.99
61963;BME280;47927;42.646;23.096;2022-10-16T06:13:32;92884.59;;;27.05;23.57
61963;BME280;47927;42.646;23.096;2022-10-16T06:15:59;92892.19;;;27.35;22.57
61963;BME280;47927;42.646;23.096;2022-10-16T06:18:26;92882.16;;;27.63;22.43
61963;BME280;47927;42.646;23.096;2022-10-16T06:20:52;92901.66;;;28.39;21.82
61963;BME280;47927;42.646;23.096;2022-10-16T06:23:17;92902.56;;;28.45;21.92
61963;BME280;47927;42.646;23.096;2022-10-16T06:25:43;92897.16;;;27.69;22.84
61963;BME280;47927;42.646;23.096;2022-10-16T06:28:09;92901.38;;;28.37;22.18
61963;BME280;47927;42.646;23.096;2022-10-16T06:30:34;92902.53;;;28.12;22.19
61963;BME280;47927;42.646;23.096;2022-10-16T06:33:00;92911.63;;;28.48;22.56
61963;BME280;47927;42.646;23.096;2022-10-16T06:35:25;92902.41;;;29.12;21.45
61963;BME280;47927;42.646;23.096;2022-10-16T06:37:52;92905.13;;;29.26;21.91
61963;BME280;47927;42.646;23.096;2022-10-16T06:40:18;92908.53;;;29.42;22.05
61963;BME280;47927;42.646;23.096;2022-10-16T06:42:44;92899.78;;;29.71;21.23
61963;BME280;47927;42.646;23.096;2022-10-16T06:45:10;92908.69;;;29.08;21.51
61963;BME280;47927;42.646;23.096;2022-10-16T06:47:36;92900.91;;;29.79;21.09
61963;BME280;47927;42.646;23.096;2022-10-16T06:50:02;92915.38;;;29.67;20.73
61963;BME280;47927;42.646;23.096;2022-10-16T06:52:28;92913.56;;;29.34;21.54
61963;BME280;47927;42.646;23.096;2022-10-16T06:54:54;92913.78;;;29.06;22.21
61963;BME280;47927;42.646;23.096;2022-10-16T06:57:20;92914.94;;;29.29;21.98
61963;BME280;47927;42.646;23.096;2022-10-16T06:59:45;92924.44;;;29.16;22.08
61963;BME280;47927;42.646;23.096;2022-10-16T07:02:11;92921.16;;;30.10;20.70
61963;BME280;47927;42.646;23.096;2022-10-16T07:04:36;92930.06;;;30.86;20.16
61963;BME280;47927;42.646;23.096;2022-10-16T07:07:02;92929.31;;;30.01;21.35
61963;BME280;47927;42.646;23.096;2022-10-16T07:09:28;92939.50;;;30.61;20.48
61963;BME280;47927;42.646;23.096;2022-10-16T07:11:53;92935.31;;;30.25;21.23
61963;BME280;47927;42.646;23.096;2022-10-16T07:14:20;92935.13;;;30.43;21.43
61963;BME280;47927;42.646;23.096;2022-10-16T07:16:46;92934.25;;;29.72;21.41
61963;BME280;47927;42.646;23.096;2022-10-16T07:19:13;92935.78;;;30.09;21.06
61963;BME280;47927;42.646;23.096;2022-10-16T07:21:41;92938.50;;;29.64;21.98
61963;BME280;47927;42.646;23.096;2022-10-16T07:24:11;92943.31;;;30.05;21.01
61963;BME280;47927;42.646;23.096;2022-10-16T07:26:38;92941.00;;;29.97;21.72
61963;BME280;47927;42.646;23.096;2022-10-16T07:29:06;92938.69;;;29.75;20.91
61963;BME280;47927;42.646;23.096;2022-10-16T07:31:32;92938.31;;;29.97;21.08
61963;BME280;47927;42.646;23.096;2022-10-16T07:33:59;92940.75;;;29.66;21.33
61963;BME280;47927;42.646;23.096;2022-10-16T07:36:25;92936.25;;;29.92;20.83
61963;BME280;47927;42.646;23.096;2022-10-16T07:38:50;92936.81;;;30.26;20.12
61963;BME280;47927;42.646;23.096;2022-10-16T07:41:18;92944.41;;;30.13;20.26
61963;BME280;47927;42.646;23.096;2022-10-16T07:43:51;92950.06;;;30.15;21.12
61963;BME280;47927;42.646;23.096;2022-10-16T07:46:18;92950.13;;;30.71;20.43
61963;BME280;47927;42.646;23.096;2022-10-16T07:48:45;92952.53;;;31.04;20.19
61963;BME280;47927;42.646;23.096;2022-10-16T07:51:14;92956.13;;;31.62;19.24
61963;BME280;47927;42.646;23.096;2022-10-16T07:53:40;92961.47;;;30.60;20.01
61963;BME280;47927;42.646;23.096;2022-10-16T07:56:06;92958.66;;;31.04;19.53
61963;BME280;47927;42.646;23.096;2022-10-16T07:58:33;92959.53;;;31.16;19.21
61963;BME280;47927;42.646;23.096;2022-10-16T08:01:03;92961.41;;;31.30;19.47
61963;BME280;47927;42.646;23.096;2022-10-16T08:03:29;92963.16;;;30.93;19.54
61963;BME280;47927;42.646;23.096;2022-10-16T08:05:56;92952.22;;;29.81;19.96
61963;BME280;47927;42.646;23.096;2022-10-16T08:08:22;92952.44;;;28.00;20.79
61963;BME280;47927;42.646;23.096;2022-10-16T08:10:48;92965.59;;;27.15;23.09
61963;BME280;47927;42.646;23.096;2022-10-16T08:13:14;92957.84;;;27.82;20.15
61963;BME280;47927;42.646;23.096;2022-10-16T08:15:44;92967.31;;;24.27;24.72
61963;BME280;47927;42.646;23.096;2022-10-16T08:18:11;92958.16;;;25.01;24.84
61963;BME280;47927;42.646;23.096;2022-10-16T08:20:37;92949.16;;;25.42;23.15
61963;BME280;47927;42.646;23.096;2022-10-16T08:23:04;92960.78;;;25.71;21.48
61963;BME280;47927;42.646;23.096;2022-10-16T08:25:29;92950.19;;;23.48;24.09
61963;BME280;47927;42.646;23.096;2022-10-16T08:27:55;92956.03;;;23.55;23.54
61963;BME280;47927;42.646;23.096;2022-10-16T08:30:22;92963.41;;;22.89;24.87
61963;BME280;47927;42.646;23.096;2022-10-16T08:32:48;92957.31;;;24.18;23.70
61963;BME280;47927;42.646;23.096;2022-10-16T08:35:14;92955.66;;;23.70;24.04
61963;BME280;47927;42.646;23.096;2022-10-16T08:37:40;92976.03;;;23.47;24.69
61963;BME280;47927;42.646;23.096;2022-10-16T08:40:07;92967.09;;;22.95;25.11
61963;BME280;47927;42.646;23.096;2022-10-16T08:48:27;92965.28;;;23.51;25.24
61963;BME280;47927;42.646;23.096;2022-10-16T08:50:55;92981.78;;;24.39;23.67
61963;BME280;47927;42.646;23.096;2022-10-16T08:53:28;92973.22;;;23.09;25.07
61963;BME280;47927;42.646;23.096;2022-10-16T08:55:55;92969.97;;;23.17;24.52
61963;BME280;47927;42.646;23.096;2022-10-16T08:58:23;92972.22;;;24.03;24.57
61963;BME280;47927;42.646;23.096;2022-10-16T09:00:56;92983.50;;;24.32;22.97
61963;BME280;47927;42.646;23.096;2022-10-16T09:12:48;92970.94;;;26.07;21.68
61963;BME280;47927;42.646;23.096;2022-10-16T09:25:43;92971.44;;;25.92;22.70
61963;BME280;47927;42.646;23.096;2022-10-16T09:28:10;92955.97;;;26.50;21.52
61963;BME280;47927;42.646;23.096;2022-10-16T09:30:36;92982.44;;;25.51;22.07
61963;BME280;47927;42.646;23.096;2022-10-16T09:33:03;92973.66;;;24.81;23.23
61963;BME280;47927;42.646;23.096;2022-10-16T09:35:41;92977.09;;;25.51;21.79
61963;BME280;47927;42.646;23.096;2022-10-16T09:38:07;92976.38;;;25.81;21.87
61963;BME280;47927;42.646;23.096;2022-10-16T09:40:36;92981.72;;;25.81;21.50
61963;BME280;47927;42.646;23.096;2022-10-16T09:46:40;92974.19;;;26.42;20.39
61963;BME280;47927;42.646;23.096;2022-10-16T09:49:20;92971.22;;;24.86;19.65
61963;BME280;47927;42.646;23.096;2022-10-16T09:51:46;92971.50;;;25.01;21.14
61963;BME280;47927;42.646;23.096;2022-10-16T09:54:21;92966.28;;;24.97;21.14
61963;BME280;47927;42.646;23.096;2022-10-16T09:56:47;92961.13;;;24.68;20.88
61963;BME280;47927;42.646;23.096;2022-10-16T09:59:19;92967.47;;;24.96;21.02
61963;BME280;47927;42.646;23.096;2022-10-16T10:01:50;92956.84;;;24.71;21.38
61963;BME280;47927;42.646;23.096;2022-10-16T10:04:20;92965.75;;;25.02;22.84
61963;BME280;47927;42.646;23.096;2022-10-16T10:09:27;92956.81;;;23.56;22.64
61963;BME280;47927;42.646;23.096;2022-10-16T10:11:57;92965.00;;;23.03;23.51
61963;BME280;47927;42.646;23.096;2022-10-16T10:14:42;92969.84;;;22.06;23.93
61963;BME280;47927;42.646;23.096;2022-10-16T10:19:39;92951.63;;;22.08;24.28
61963;BME280;47927;42.646;23.096;2022-10-16T10:22:22;92953.75;;;22.50;24.15
61963;BME280;47927;42.646;23.096;2022-10-16T10:28:14;92944.25;;;22.16;24.42
61963;BME280;47927;42.646;23.096;2022-10-16T10:31:14;92942.47;;;21.37;24.87
61963;BME280;47927;42.646;23.096;2022-10-16T10:36:33;92933.94;;;20.12;27.46
61963;BME280;47927;42.646;23.096;2022-10-16T10:39:15;92943.13;;;20.03;27.40
61963;BME280;47927;42.646;23.096;2022-10-16T10:47:42;92935.97;;;19.73;27.57
61963;BME280;47927;42.646;23.096;2022-10-16T10:53:21;92931.75;;;20.07;28.03
61963;BME280;47927;42.646;23.096;2022-10-16T10:58:57;92924.50;;;18.39;28.33
61963;BME280;47927;42.646;23.096;2022-10-16T11:06:23;92930.03;;;18.52;30.22
61963;BME280;47927;42.646;23.096;2022-10-16T11:09:18;92931.75;;;18.28;30.87
61963;BME280;47927;42.646;23.096;2022-10-16T11:11:57;92926.91;;;18.64;30.81
61963;BME280;47927;42.646;23.096;2022-10-16T11:14:40;92931.63;;;18.87;29.06
61963;BME280;47927;42.646;23.096;2022-10-16T11:17:33;92920.97;;;18.08;29.39
61963;BME280;47927;42.646;23.096;2022-10-16T11:20:21;92916.25;;;17.74;30.88
61963;BME280;47927;42.646;23.096;2022-10-16T11:23:16;92924.16;;;16.79;32.26
61963;BME280;47927;42.646;23.096;2022-10-16T11:25:45;92899.19;;;17.27;31.55
61963;BME280;47927;42.646;23.096;2022-10-16T11:28:19;92924.63;;;17.62;31.68
61963;BME280;47927;42.646;23.096;2022-10-16T11:30:57;92918.75;;;17.29;32.70
61963;BME280;47927;42.646;23.096;2022-10-16T11:39:21;92935.38;;;16.98;32.52
61963;BME280;47927;42.646;23.096;2022-10-16T11:41:51;92925.28;;;16.75;31.16
61963;BME280;47927;42.646;23.096;2022-10-16T11:47:27;92923.94;;;17.47;30.33
61963;BME280;47927;42.646;23.096;2022-10-16T11:49:57;92931.34;;;17.77;29.16
61963;BME280;47927;42.646;23.096;2022-10-16T11:52:55;92931.56;;;17.13;30.64
61963;BME280;47927;42.646;23.096;2022-10-16T11:55:31;92932.88;;;17.64;30.37
61963;BME280;47927;42.646;23.096;2022-10-16T11:58:22;92922.91;;;17.23;31.59
61963;BME280;47927;42.646;23.096;2022-10-16T12:04:04;92929.44;;;16.40;32.55
61963;BME280;47927;42.646;23.096;2022-10-16T12:11:46;92918.16;;;17.77;31.69
61963;BME280;47927;42.646;23.096;2022-10-16T12:19:21;92915.72;;;18.53;29.84
61963;BME280;47927;42.646;23.096;2022-10-16T12:21:47;92921.06;;;18.46;29.71
61963;BME280;47927;42.646;23.096;2022-10-16T12:24:43;92939.75;;;18.17;30.52
61963;BME280;47927;42.646;23.096;2022-10-16T12:27:29;92922.69;;;18.29;30.27
61963;BME280;47927;42.646;23.096;2022-10-16T12:30:02;92927.13;;;17.87;29.31
61963;BME280;47927;42.646;23.096;2022-10-16T12:32:37;92934.25;;;17.90;29.43
61963;BME280;47927;42.646;23.096;2022-10-16T12:35:06;92919.28;;;18.36;29.15
61963;BME280;47927;42.646;23.096;2022-10-16T12:37:42;92922.31;;;18.31;29.03
61963;BME280;47927;42.646;23.096;2022-10-16T12:40:14;92922.63;;;17.84;30.48
61963;BME280;47927;42.646;23.096;2022-10-16T12:42:41;92904.94;;;17.81;30.15
61963;BME280;47927;42.646;23.096;2022-10-16T12:47:50;92910.22;;;17.85;29.71
61963;BME280;47927;42.646;23.096;2022-10-16T12:50:48;92924.28;;;18.19;29.58
61963;BME280;47927;42.646;23.096;2022-10-16T12:53:22;92914.06;;;17.66;31.12
61963;BME280;47927;42.646;23.096;2022-10-16T12:58:42;92922.41;;;17.50;31.43
61963;BME280;47927;42.646;23.096;2022-10-16T13:03:54;92929.81;;;17.80;29.03
61963;BME280;47927;42.646;23.096;2022-10-16T13:09:55;92923.63;;;17.31;30.66
61963;BME280;47927;42.646;23.096;2022-10-16T13:12:27;92931.28;;;16.68;32.05
61963;BME280;47927;42.646;23.096;2022-10-16T13:15:01;92933.97;;;16.22;33.21
61963;BME280;47927;42.646;23.096;2022-10-16T13:28:22;92936.16;;;16.73;33.55
61963;BME280;47927;42.646;23.096;2022-10-16T13:30:52;92932.41;;;16.67;34.41
61963;BME280;47927;42.646;23.096;2022-10-16T13:35:56;92939.94;;;16.58;33.18
61963;BME280;47927;42.646;23.096;2022-10-16T13:38:25;92948.56;;;17.01;33.09
61963;BME280;47927;42.646;23.096;2022-10-16T13:40:56;92945.53;;;17.06;33.09
61963;BME280;47927;42.646;23.096;2022-10-16T13:43:26;92945.94;;;16.91;32.80
61963;BME280;47927;42.646;23.096;2022-10-16T13:46:04;92933.94;;;16.47;33.24
61963;BME280;47927;42.646;23.096;2022-10-16T13:48:31;92948.22;;;16.60;33.22
61963;BME280;47927;42.646;23.096;2022-10-16T13:51:02;92946.34;;;16.39;33.89
61963;BME280;47927;42.646;23.096;2022-10-16T13:53:31;92937.69;;;16.63;33.42
61963;BME280;47927;42.646;23.096;2022-10-16T13:55:57;92954.16;;;17.18;32.03
61963;BME280;47927;42.646;23.096;2022-10-16T13:58:22;92935.78;;;16.85;32.11
61963;BME280;47927;42.646;23.096;2022-10-16T14:01:18;92949.66;;;17.00;33.16
61963;BME280;47927;42.646;23.096;2022-10-16T14:03:46;92945.22;;;16.40;34.88
61963;BME280;47927;42.646;23.096;2022-10-16T14:06:20;92951.94;;;16.73;34.61
61963;BME280;47927;42.646;23.096;2022-10-16T14:08:54;92954.63;;;16.37;34.77
61963;BME280;47927;42.646;23.096;2022-10-16T14:11:22;92939.19;;;16.75;33.64
61963;BME280;47927;42.646;23.096;2022-10-16T14:13:52;92944.47;;;16.61;33.67
61963;BME280;47927;42.646;23.096;2022-10-16T14:16:24;92950.47;;;16.54;34.32
61963;BME280;47927;42.646;23.096;2022-10-16T14:19:04;92939.97;;;16.22;35.12
61963;BME280;47927;42.646;23.096;2022-10-16T14:21:33;92949.34;;;16.52;34.34
61963;BME280;47927;42.646;23.096;2022-10-16T14:23:59;92942.59;;;16.69;34.20
61963;BME280;47927;42.646;23.096;2022-10-16T14:26:42;92951.59;;;16.64;33.80
61963;BME280;47927;42.646;23.096;2022-10-16T14:29:14;92946.34;;;16.75;33.44
61963;BME280;47927;42.646;23.096;2022-10-16T14:31:41;92947.47;;;16.31;34.72
61963;BME280;47927;42.646;23.096;2022-10-16T14:34:30;92951.94;;;16.09;35.33
61963;BME280;47927;42.646;23.096;2022-10-16T14:37:09;92947.09;;;16.47;35.00
61963;BME280;47927;42.646;23.096;2022-10-16T14:39:40;92955.34;;;16.38;34.88
61963;BME280;47927;42.646;23.096;2022-10-16T14:42:14;92951.22;;;16.44;34.94
61963;BME280;47927;42.646;23.096;2022-10-16T14:44:42;92945.19;;;16.15;35.13
61963;BME280;47927;42.646;23.096;2022-10-16T14:47:12;92964.00;;;16.38;35.43
61963;BME280;47927;42.646;23.096;2022-10-16T14:49:41;92947.09;;;16.57;34.52
61963;BME280;47927;42.646;23.096;2022-10-16T14:52:13;92960.19;;;17.00;33.65
61963;BME280;47927;42.646;23.096;2022-10-16T14:54:40;92948.22;;;16.81;33.85
61963;BME280;47927;42.646;23.096;2022-10-16T14:57:05;92963.97;;;16.92;33.62
61963;BME280;47927;42.646;23.096;2022-10-16T14:59:42;92968.13;;;16.90;33.77
61963;BME280;47927;42.646;23.096;2022-10-16T15:02:28;92978.25;;;16.62;34.15
61963;BME280;47927;42.646;23.096;2022-10-16T15:04:55;92970.38;;;16.70;34.20
61963;BME280;47927;42.646;23.096;2022-10-16T15:07:21;92966.63;;;16.35;34.52
61963;BME280;47927;42.646;23.096;2022-10-16T15:09:47;92966.22;;;16.01;34.95